createdAt,value
2019-03-28T00:02:05.736Z,8.87
2019-03-28T00:04:33.873Z,7.57
2019-03-28T00:07:02.254Z,8.70
2019-03-28T00:09:30.399Z,8.27
2019-03-28T00:11:58.541Z,7.37
2019-03-28T00:14:26.837Z,9.13
2019-03-28T00:16:54.998Z,7.30
2019-03-28T00:19:23.121Z,6.73
2019-03-28T00:21:51.848Z,7.73
2019-03-28T00:24:24.454Z,6.80
2019-03-28T00:26:52.589Z,6.53
2019-03-28T00:29:21.059Z,7.10
2019-03-28T00:31:49.186Z,6.50
2019-03-28T00:34:17.336Z,6.30
2019-03-28T00:36:45.518Z,6.87
2019-03-28T00:39:13.649Z,5.90
2019-03-28T00:41:41.781Z,8.70
2019-03-28T00:44:10.109Z,7.03
2019-03-28T00:46:38.246Z,6.40
2019-03-28T00:49:06.384Z,7.23
2019-03-28T00:51:34.590Z,6.90
2019-03-28T00:54:02.725Z,7.27
2019-03-28T00:56:44.936Z,8.20
2019-03-28T00:59:00.969Z,6.53
2019-03-28T01:01:29.129Z,7.20
2019-03-28T01:03:57.258Z,6.37
2019-03-28T01:06:25.393Z,6.17
2019-03-28T01:08:53.525Z,6.87
2019-03-28T01:11:21.738Z,7.27
2019-03-28T01:13:50.003Z,5.93
2019-03-28T01:16:18.145Z,7.37
2019-03-28T01:18:46.280Z,7.07
2019-03-28T01:21:14.478Z,6.33
2019-03-28T01:23:42.606Z,6.27
2019-03-28T01:26:10.821Z,6.43
2019-03-28T01:28:39.101Z,7.33
2019-03-28T01:31:07.229Z,5.80
2019-03-28T01:33:35.362Z,5.70
2019-03-28T01:36:03.559Z,6.47
2019-03-28T01:38:31.697Z,6.67
2019-03-28T01:40:59.886Z,5.27
2019-03-28T01:43:28.347Z,7.47
2019-03-28T01:45:56.485Z,6.53
2019-03-28T01:48:24.629Z,7.10
2019-03-28T01:50:53.008Z,6.47
2019-03-28T01:53:21.144Z,5.93
2019-03-28T01:55:49.274Z,7.07
2019-03-28T01:58:17.554Z,6.23
2019-03-28T02:00:45.686Z,6.17
2019-03-28T02:03:13.825Z,6.33
2019-03-28T02:05:41.998Z,5.27
2019-03-28T02:08:10.136Z,5.50
2019-03-28T02:10:38.264Z,6.33
2019-03-28T02:13:06.598Z,6.67
2019-03-28T02:15:34.735Z,6.83
2019-03-28T02:18:03.295Z,5.63
2019-03-28T02:20:31.497Z,5.50
2019-03-28T02:22:59.649Z,5.97
2019-03-28T02:25:27.790Z,6.90
2019-03-28T02:27:56.170Z,6.20
2019-03-28T02:30:31.210Z,6.40
2019-03-28T02:33:00.015Z,5.97
2019-03-28T02:35:28.323Z,7.33
2019-03-28T02:37:56.465Z,6.83
2019-03-28T02:40:24.818Z,7.47
2019-03-28T02:42:53.445Z,7.03
2019-03-28T02:45:21.759Z,7.67
2019-03-28T02:47:50.946Z,5.30
2019-03-28T02:50:19.093Z,5.87
2019-03-28T02:52:47.509Z,6.47
2019-03-28T02:55:15.785Z,6.80
2019-03-28T02:57:44.184Z,5.83
2019-03-28T03:00:12.365Z,6.30
2019-03-28T03:02:40.527Z,6.23
2019-03-28T03:05:08.751Z,5.57
2019-03-28T03:07:36.877Z,6.63
2019-03-28T03:10:06.265Z,5.57
2019-03-28T03:12:34.404Z,6.43
2019-03-28T03:15:03.592Z,6.20
2019-03-28T03:17:32.087Z,6.50
2019-03-28T03:20:00.373Z,5.67
2019-03-28T03:22:28.705Z,5.60
2019-03-28T03:24:57.424Z,6.03
2019-03-28T03:27:25.545Z,6.57
2019-03-28T03:29:53.691Z,6.37
2019-03-28T03:32:22.177Z,6.53
2019-03-28T03:34:50.372Z,5.60
2019-03-28T03:37:18.590Z,6.23
2019-03-28T03:39:46.762Z,6.73
2019-03-28T03:42:14.885Z,5.50
2019-03-28T03:44:43.001Z,6.00
2019-03-28T03:47:11.243Z,5.80
2019-03-28T03:49:39.403Z,7.87
2019-03-28T03:52:07.520Z,5.90
2019-03-28T03:54:35.865Z,7.20
2019-03-28T03:57:03.970Z,7.33
2019-03-28T03:59:32.163Z,5.80
2019-03-28T04:02:00.352Z,6.70
2019-03-28T04:04:28.478Z,7.20
2019-03-28T04:06:56.595Z,5.90
2019-03-28T04:09:24.737Z,6.87
2019-03-28T04:11:52.840Z,6.23
2019-03-28T04:14:20.962Z,6.13
2019-03-28T04:16:49.373Z,5.70
2019-03-28T04:19:17.498Z,6.30
2019-03-28T04:21:45.639Z,5.93
2019-03-28T04:24:13.820Z,7.00
2019-03-28T04:26:42.090Z,7.47
2019-03-28T04:29:10.244Z,10.20
2019-03-28T04:31:38.535Z,6.20
2019-03-28T04:34:07.966Z,5.73
2019-03-28T04:36:36.569Z,6.13
2019-03-28T04:39:05.374Z,6.87
2019-03-28T04:41:33.490Z,6.77
2019-03-28T04:44:01.608Z,6.53
2019-03-28T04:46:29.890Z,6.67
2019-03-28T04:48:58.017Z,6.73
2019-03-28T04:51:26.137Z,7.20
2019-03-28T04:53:56.333Z,8.47
2019-03-28T04:56:24.334Z,5.83
2019-03-28T04:58:52.556Z,6.67
2019-03-28T05:01:21.265Z,7.13
2019-03-28T05:03:49.462Z,6.07
2019-03-28T05:06:17.798Z,5.87
2019-03-28T05:08:45.917Z,7.23
2019-03-28T05:11:14.102Z,7.73
2019-03-28T05:13:42.218Z,5.80
2019-03-28T05:16:10.393Z,6.27
2019-03-28T05:18:38.498Z,6.87
2019-03-28T05:21:06.612Z,5.13
2019-03-28T05:23:34.887Z,8.07
2019-03-28T05:26:03.046Z,6.07
2019-03-28T05:28:31.167Z,5.77
2019-03-28T05:30:59.503Z,5.77
2019-03-28T05:33:27.640Z,5.30
2019-03-28T05:35:55.746Z,5.50
2019-03-28T05:38:23.927Z,4.97
2019-03-28T05:40:52.352Z,6.83
2019-03-28T05:43:20.474Z,5.73
2019-03-28T05:45:48.769Z,6.47
2019-03-28T05:48:16.910Z,7.47
2019-03-28T05:50:45.062Z,5.97
2019-03-28T05:53:13.234Z,5.83
2019-03-28T05:55:41.358Z,6.47
2019-03-28T05:58:09.818Z,5.43
2019-03-28T06:00:39.091Z,5.70
2019-03-28T06:03:07.971Z,6.70
2019-03-28T06:05:36.106Z,6.30
2019-03-28T06:08:04.282Z,6.10
2019-03-28T06:10:32.422Z,7.97
2019-03-28T06:13:00.564Z,9.03
2019-03-28T06:15:28.779Z,6.77
2019-03-28T06:17:56.930Z,6.53
2019-03-28T06:20:25.083Z,8.07
2019-03-28T06:22:53.379Z,5.23
2019-03-28T06:25:22.815Z,5.77
2019-03-28T06:27:51.340Z,5.83
2019-03-28T06:30:19.563Z,6.37
2019-03-28T06:32:47.698Z,6.60
2019-03-28T06:35:15.834Z,5.40
2019-03-28T06:37:44.293Z,6.77
2019-03-28T06:40:12.489Z,5.07
2019-03-28T06:42:40.633Z,4.67
2019-03-28T06:45:09.330Z,7.70
2019-03-28T06:47:37.513Z,7.17
2019-03-28T06:50:06.295Z,6.00
2019-03-28T06:52:34.573Z,6.17
2019-03-28T06:55:02.733Z,8.07
2019-03-28T06:57:30.892Z,5.77
2019-03-28T06:59:59.093Z,6.23
2019-03-28T07:02:27.486Z,5.10
2019-03-28T07:04:56.323Z,5.63
2019-03-28T07:07:24.734Z,6.90
2019-03-28T07:09:52.882Z,5.90
2019-03-28T07:12:21.022Z,8.10
2019-03-28T07:14:49.372Z,8.57
2019-03-28T07:17:17.521Z,7.03
2019-03-28T07:19:45.673Z,6.83
2019-03-28T07:22:13.989Z,5.47
2019-03-28T07:24:42.141Z,7.60
2019-03-28T07:27:10.297Z,7.75
2019-03-28T07:29:50.088Z,6.40
2019-03-28T07:32:08.352Z,7.40
2019-03-28T07:34:36.491Z,5.80
2019-03-28T07:37:04.878Z,7.03
2019-03-28T07:39:33.031Z,7.12
2019-03-28T07:42:01.234Z,4.45
2019-03-28T07:44:29.443Z,5.27
2019-03-28T07:46:57.602Z,3.65
2019-03-28T07:49:25.732Z,3.62
2019-03-28T07:51:54.391Z,4.87
2019-03-28T07:54:22.554Z,4.28
2019-03-28T07:56:53.833Z,6.03
2019-03-28T07:59:22.274Z,6.22
2019-03-28T08:01:50.410Z,5.08
2019-03-28T08:04:18.585Z,6.75
2019-03-28T08:06:50.194Z,5.10
2019-03-28T08:09:17.677Z,4.92
2019-03-28T08:11:48.209Z,5.10
2019-03-28T08:14:15.955Z,4.53
2019-03-28T08:16:44.098Z,4.42
2019-03-28T08:19:12.309Z,3.92
2019-03-28T08:21:40.494Z,5.53
2019-03-28T08:24:08.649Z,5.40
2019-03-28T08:26:36.803Z,3.87
2019-03-28T08:29:05.186Z,7.20
2019-03-28T08:31:33.340Z,6.00
2019-03-28T08:34:02.029Z,3.37
2019-03-28T08:36:30.492Z,3.27
2019-03-28T08:38:58.937Z,4.00
2019-03-28T08:41:27.141Z,4.67
2019-03-28T08:43:55.476Z,3.85
2019-03-28T08:46:23.621Z,5.80
2019-03-28T08:48:51.770Z,3.30
2019-03-28T08:51:20.054Z,2.87
2019-03-28T08:53:48.190Z,2.98
2019-03-28T08:56:16.334Z,4.30
2019-03-28T08:58:44.690Z,4.67
2019-03-28T09:01:12.831Z,6.37
2019-03-28T09:03:41.194Z,5.60
2019-03-28T09:06:09.642Z,5.90
2019-03-28T09:08:37.782Z,4.53
2019-03-28T09:11:05.942Z,4.92
2019-03-28T09:13:34.109Z,5.53
2019-03-28T09:16:02.313Z,4.65
2019-03-28T09:18:30.484Z,5.75
2019-03-28T09:20:58.688Z,3.47
2019-03-28T09:23:26.816Z,4.10
2019-03-28T09:25:54.947Z,5.45
2019-03-28T09:28:23.182Z,4.42
2019-03-28T09:30:51.338Z,4.65
2019-03-28T09:33:19.478Z,4.35
2019-03-28T09:35:47.658Z,6.28
2019-03-28T09:38:15.860Z,4.22
2019-03-28T09:40:43.984Z,6.67
2019-03-28T09:43:12.432Z,6.45
2019-03-28T09:45:40.566Z,4.95
2019-03-28T09:48:11.401Z,7.85
2019-03-28T09:50:38.570Z,5.95
2019-03-28T09:53:06.775Z,4.90
2019-03-28T09:55:34.938Z,6.62
2019-03-28T09:58:03.482Z,6.20
2019-03-28T10:00:32.979Z,7.10
2019-03-28T10:03:01.642Z,6.42
2019-03-28T10:05:30.210Z,7.33
2019-03-28T10:07:58.379Z,3.92
2019-03-28T10:10:26.509Z,5.90
2019-03-28T10:12:54.668Z,6.37
2019-03-28T10:15:22.798Z,5.10
2019-03-28T10:17:50.932Z,4.05
2019-03-28T10:20:19.249Z,5.67
2019-03-28T10:22:47.402Z,5.97
2019-03-28T10:25:15.629Z,4.35
2019-03-28T10:27:43.865Z,5.58
2019-03-28T10:30:12.437Z,5.55
2019-03-28T10:32:43.317Z,4.95
2019-03-28T10:35:13.535Z,5.70
2019-03-28T10:37:41.718Z,6.22
2019-03-28T10:40:10.070Z,8.70
2019-03-28T10:42:38.329Z,6.50
2019-03-28T10:45:06.693Z,8.05
2019-03-28T10:47:34.871Z,7.05
2019-03-28T10:50:04.274Z,5.03
2019-03-28T10:52:32.632Z,5.20
2019-03-28T10:55:00.892Z,5.47
2019-03-28T10:57:30.304Z,5.92
2019-03-28T10:59:59.092Z,5.80
2019-03-28T11:02:28.950Z,5.90
2019-03-28T11:04:57.693Z,5.97
2019-03-28T11:07:25.863Z,7.55
2019-03-28T11:09:54.041Z,5.08
2019-03-28T11:12:22.329Z,5.25
2019-03-28T11:14:50.528Z,3.95
2019-03-28T11:17:18.697Z,4.37
2019-03-28T11:19:47.074Z,4.50
2019-03-28T11:22:15.261Z,3.35
2019-03-28T11:24:46.193Z,3.90
2019-03-28T11:27:13.562Z,6.45
2019-03-28T11:29:41.813Z,5.70
2019-03-28T11:32:09.989Z,4.30
2019-03-28T11:34:38.303Z,3.92
2019-03-28T11:37:09.712Z,3.00
2019-03-28T11:39:36.373Z,2.67
2019-03-28T11:42:04.994Z,2.70
2019-03-28T11:44:33.160Z,3.98
2019-03-28T11:47:01.342Z,2.45
2019-03-28T11:49:29.533Z,2.55
2019-03-28T11:51:57.780Z,1.30
2019-03-28T11:54:25.952Z,1.20
2019-03-28T11:56:54.334Z,1.25
2019-03-28T11:59:22.521Z,0.95
2019-03-28T12:01:59.969Z,1.87
2019-03-28T12:04:20.720Z,1.40
2019-03-28T12:06:50.011Z,1.25
2019-03-28T12:09:18.813Z,1.20
2019-03-28T12:11:47.045Z,1.47
2019-03-28T12:14:15.215Z,2.67
2019-03-28T12:16:43.391Z,1.55
2019-03-28T12:19:11.728Z,1.05
2019-03-28T12:21:39.982Z,0.80
2019-03-28T12:24:08.160Z,1.22
2019-03-28T12:26:36.537Z,1.22
2019-03-28T12:29:05.903Z,1.00
2019-03-28T12:31:34.257Z,1.20
2019-03-28T12:34:02.459Z,2.77
2019-03-28T12:36:30.641Z,0.80
2019-03-28T12:38:58.891Z,0.90
2019-03-28T12:41:27.288Z,0.90
2019-03-28T12:43:55.462Z,1.30
2019-03-28T12:46:25.630Z,0.98
2019-03-28T12:48:53.549Z,1.72
2019-03-28T12:51:22.329Z,2.90
2019-03-28T12:53:50.566Z,0.70
2019-03-28T12:56:19.014Z,0.85
2019-03-28T12:58:47.220Z,0.93
2019-03-28T13:01:15.539Z,1.42
2019-03-28T13:03:45.918Z,2.10
2019-03-28T13:06:14.173Z,1.50
2019-03-28T13:08:42.376Z,1.50
2019-03-28T13:11:10.827Z,1.70
2019-03-28T13:13:39.003Z,1.98
2019-03-28T13:16:07.192Z,2.17
2019-03-28T13:18:36.179Z,2.42
2019-03-28T13:21:13.168Z,1.82
2019-03-28T13:23:34.469Z,2.55
2019-03-28T13:26:03.026Z,2.40
2019-03-28T13:28:31.293Z,2.00
2019-03-28T13:30:59.481Z,2.72
2019-03-28T13:33:27.687Z,2.10
2019-03-28T13:35:55.983Z,3.00
2019-03-28T13:38:24.192Z,2.60
2019-03-28T13:40:52.567Z,2.30
2019-03-28T13:43:20.841Z,2.55
2019-03-28T13:45:49.028Z,2.40
2019-03-28T13:48:17.214Z,2.33
2019-03-28T13:50:45.392Z,2.60
2019-03-28T13:53:13.641Z,2.40
2019-03-28T13:55:42.009Z,2.83
2019-03-28T13:58:10.257Z,2.42
2019-03-28T14:00:38.438Z,3.00
2019-03-28T14:03:06.938Z,2.50
2019-03-28T14:05:35.108Z,2.92
2019-03-28T14:08:03.501Z,5.08
2019-03-28T14:10:31.790Z,2.80
2019-03-28T14:12:59.963Z,3.50
2019-03-28T14:15:28.108Z,2.60
2019-03-28T14:17:56.369Z,4.72
2019-03-28T14:20:24.509Z,3.62
2019-03-28T14:22:52.801Z,3.87
2019-03-28T14:25:21.838Z,2.80
2019-03-28T14:27:50.088Z,2.80
2019-03-28T14:30:18.382Z,3.50
2019-03-28T14:32:53.195Z,3.42
2019-03-28T14:35:16.606Z,3.50
2019-03-28T14:37:44.794Z,2.80
2019-03-28T14:40:13.582Z,3.45
2019-03-28T14:42:41.757Z,4.22
2019-03-28T14:45:10.122Z,3.35
2019-03-28T14:47:38.362Z,3.42
2019-03-28T14:50:06.709Z,2.90
2019-03-28T14:52:35.294Z,3.87
2019-03-28T14:55:03.962Z,3.15
2019-03-28T14:57:32.281Z,2.67
2019-03-28T15:00:00.728Z,2.60
2019-03-28T15:02:29.274Z,2.70
2019-03-28T15:04:57.694Z,2.65
2019-03-28T15:07:26.100Z,2.50
2019-03-28T15:09:54.393Z,2.45
2019-03-28T15:12:22.651Z,2.70
2019-03-28T15:14:50.901Z,2.60
2019-03-28T15:17:19.100Z,3.05
2019-03-28T15:19:47.349Z,2.95
2019-03-28T15:22:15.492Z,2.50
2019-03-28T15:24:43.851Z,2.10
2019-03-28T15:27:12.025Z,2.00
2019-03-28T15:29:40.279Z,2.58
2019-03-28T15:32:08.483Z,2.55
2019-03-28T15:34:36.668Z,2.87
2019-03-28T15:37:04.850Z,2.65
2019-03-28T15:39:33.401Z,2.35
2019-03-28T15:42:01.708Z,3.15
2019-03-28T15:44:29.937Z,2.52
2019-03-28T15:46:58.151Z,2.62
2019-03-28T15:49:26.398Z,4.12
2019-03-28T15:51:57.378Z,4.77
2019-03-28T15:54:25.641Z,2.72
2019-03-28T15:56:53.897Z,2.80
2019-03-28T15:59:22.109Z,3.62
2019-03-28T16:01:50.497Z,2.72
2019-03-28T16:04:18.678Z,3.30
2019-03-28T16:06:46.861Z,3.25
2019-03-28T16:09:18.184Z,3.00
2019-03-28T16:11:44.917Z,3.10
2019-03-28T16:14:13.069Z,2.95
2019-03-28T16:16:41.262Z,3.15
2019-03-28T16:19:09.487Z,3.10
2019-03-28T16:21:37.642Z,3.05
2019-03-28T16:24:06.361Z,3.12
2019-03-28T16:26:36.183Z,3.30
2019-03-28T16:29:04.415Z,4.22
2019-03-28T16:31:33.344Z,3.87
2019-03-28T16:34:07.018Z,4.15
2019-03-28T16:36:31.419Z,3.22
2019-03-28T16:38:59.990Z,3.72
2019-03-28T16:41:28.173Z,3.60
2019-03-28T16:43:56.385Z,3.85
2019-03-28T16:46:24.829Z,3.50
2019-03-28T16:48:53.021Z,3.12
2019-03-28T16:51:21.198Z,3.35
2019-03-28T16:53:49.656Z,4.30
2019-03-28T16:56:17.923Z,3.83
2019-03-28T16:58:46.153Z,3.67
2019-03-28T17:01:14.486Z,3.42
2019-03-28T17:03:42.697Z,3.70
2019-03-28T17:06:10.940Z,3.75
2019-03-28T17:08:39.794Z,3.83
2019-03-28T17:11:07.967Z,3.52
2019-03-28T17:13:36.217Z,3.72
2019-03-28T17:16:04.827Z,4.55
2019-03-28T17:18:33.002Z,3.22
2019-03-28T17:21:01.221Z,4.60
2019-03-28T17:23:29.555Z,3.80
2019-03-28T17:25:57.901Z,4.05
2019-03-28T17:28:26.132Z,3.75
2019-03-28T17:30:54.417Z,3.83
2019-03-28T17:33:22.614Z,3.50
2019-03-28T17:35:50.866Z,5.12
2019-03-28T17:38:19.139Z,4.05
2019-03-28T17:40:47.319Z,4.40
2019-03-28T17:43:15.923Z,3.90
2019-03-28T17:45:44.781Z,3.95
2019-03-28T17:48:13.012Z,4.22
2019-03-28T17:50:41.179Z,3.30
2019-03-28T17:53:09.612Z,3.42
2019-03-28T17:55:37.878Z,3.27
2019-03-28T17:58:06.125Z,3.70
2019-03-28T18:00:34.533Z,3.37
2019-03-28T18:03:09.044Z,4.60
2019-03-28T18:05:32.617Z,3.17
2019-03-28T18:08:00.969Z,4.12
2019-03-28T18:10:29.798Z,3.60
2019-03-28T18:12:58.197Z,3.30
2019-03-28T18:15:26.392Z,3.27
2019-03-28T18:17:54.570Z,3.22
2019-03-28T18:20:22.824Z,3.05
2019-03-28T18:22:51.283Z,2.67
2019-03-28T18:25:19.521Z,2.83
2019-03-28T18:27:47.705Z,3.60
2019-03-28T18:30:16.329Z,3.10
2019-03-28T18:32:44.860Z,3.02
2019-03-28T18:35:13.320Z,3.55
2019-03-28T18:37:41.697Z,2.52
2019-03-28T18:40:09.940Z,2.95
2019-03-28T18:42:38.107Z,2.22
2019-03-28T18:45:07.923Z,2.50
2019-03-28T18:47:36.359Z,3.85
2019-03-28T18:50:05.376Z,2.80
2019-03-28T18:52:33.994Z,3.23
2019-03-28T18:55:03.517Z,2.80
2019-03-28T18:57:32.733Z,2.50
2019-03-28T19:00:01.122Z,2.30
2019-03-28T19:02:29.266Z,2.93
2019-03-28T19:04:57.434Z,2.37
2019-03-28T19:07:25.761Z,2.40
2019-03-28T19:09:53.913Z,2.30
2019-03-28T19:12:22.073Z,2.67
2019-03-28T19:14:50.382Z,2.50
2019-03-28T19:17:18.537Z,2.12
2019-03-28T19:19:46.758Z,2.47
2019-03-28T19:22:15.268Z,2.55
2019-03-28T19:24:43.426Z,2.85
2019-03-28T19:27:11.579Z,2.98
2019-03-28T19:29:40.322Z,5.35
2019-03-28T19:32:08.541Z,4.40
2019-03-28T19:34:36.690Z,3.37
2019-03-28T19:37:04.859Z,4.05
2019-03-28T19:39:33.469Z,4.97
2019-03-28T19:42:04.384Z,3.58
2019-03-28T19:44:32.100Z,3.52
2019-03-28T19:47:00.250Z,4.40
2019-03-28T19:49:28.489Z,3.83
2019-03-28T19:51:56.699Z,3.37
2019-03-28T19:54:24.916Z,3.67
2019-03-28T19:56:53.054Z,3.95
2019-03-28T19:59:21.360Z,3.30
2019-03-28T20:01:49.507Z,3.62
2019-03-28T20:04:17.661Z,2.80
2019-03-28T20:06:45.897Z,3.85
2019-03-28T20:09:16.513Z,3.10
2019-03-28T20:11:44.021Z,3.17
2019-03-28T20:14:12.328Z,3.00
2019-03-28T20:16:40.477Z,3.47
2019-03-28T20:19:08.614Z,3.63
2019-03-28T20:21:36.866Z,3.47
2019-03-28T20:24:05.148Z,4.60
2019-03-28T20:26:33.297Z,4.67
2019-03-28T20:29:01.608Z,4.17
2019-03-28T20:31:29.816Z,3.37
2019-03-28T20:33:58.038Z,3.12
2019-03-28T20:36:37.752Z,3.75
2019-03-28T20:39:03.893Z,4.23
2019-03-28T20:41:25.917Z,3.72
2019-03-28T20:43:54.269Z,3.55
2019-03-28T20:46:22.474Z,3.45
2019-03-28T20:48:50.675Z,3.25
2019-03-28T20:51:18.990Z,3.72
2019-03-28T20:53:47.137Z,3.77
2019-03-28T20:56:15.358Z,3.60
2019-03-28T20:58:43.873Z,4.53
2019-03-28T21:01:12.021Z,3.20
2019-03-28T21:03:41.210Z,3.75
2019-03-28T21:06:15.841Z,3.27
2019-03-28T21:08:40.022Z,3.50
2019-03-28T21:11:08.245Z,4.00
2019-03-28T21:13:36.416Z,3.50
2019-03-28T21:16:04.605Z,3.30
2019-03-28T21:18:32.728Z,3.65
2019-03-28T21:21:00.882Z,4.40
2019-03-28T21:23:48.361Z,3.70
2019-03-28T21:26:16.665Z,3.97
2019-03-28T21:28:47.342Z,3.30
2019-03-28T21:31:15.756Z,3.80
2019-03-28T21:33:44.074Z,3.85
2019-03-28T21:36:12.249Z,3.90
2019-03-28T21:38:40.322Z,3.80
2019-03-28T21:41:08.464Z,3.70
2019-03-28T21:43:36.565Z,3.77
2019-03-28T21:46:04.663Z,3.67
2019-03-28T21:48:33.181Z,3.80
2019-03-28T21:51:01.321Z,3.90
2019-03-28T21:53:29.502Z,3.70
2019-03-28T21:55:57.833Z,4.43
2019-03-28T21:58:25.999Z,3.58
2019-03-28T22:00:54.167Z,4.00
2019-03-28T22:05:56.985Z,4.22
2019-03-28T22:08:25.229Z,4.20
2019-03-28T22:10:53.403Z,4.97
2019-03-28T22:13:22.055Z,4.83
2019-03-28T22:24:52.196Z,4.50
2019-03-28T22:27:39.842Z,4.10
2019-03-28T22:30:08.458Z,5.53
2019-03-28T22:32:36.609Z,3.90
2019-03-28T22:35:06.302Z,3.90
2019-03-28T22:37:34.437Z,4.37
2019-03-28T22:40:02.640Z,3.67
2019-03-28T22:42:31.032Z,4.33
2019-03-28T22:44:59.162Z,3.45
2019-03-28T22:47:27.313Z,3.70
2019-03-28T22:49:55.578Z,4.50
2019-03-28T22:52:23.733Z,3.90
2019-03-28T22:54:51.869Z,3.95
2019-03-28T22:57:20.228Z,4.23
2019-03-28T22:59:48.377Z,4.53
2019-03-28T23:02:16.520Z,4.20
2019-03-28T23:04:44.814Z,4.17
2019-03-28T23:07:12.949Z,4.72
2019-03-28T23:09:41.092Z,4.60
2019-03-28T23:12:09.280Z,4.50
2019-03-28T23:14:37.471Z,4.90
2019-03-28T23:17:05.618Z,4.90
2019-03-28T23:19:33.790Z,4.20
2019-03-28T23:22:02.023Z,5.22
2019-03-28T23:24:30.137Z,4.57
2019-03-28T23:26:58.310Z,5.27
2019-03-28T23:29:26.458Z,5.13
2019-03-28T23:31:54.909Z,5.33
2019-03-28T23:34:23.137Z,5.17
2019-03-28T23:36:51.342Z,4.57
2019-03-28T23:39:19.470Z,5.00
2019-03-28T23:41:47.930Z,5.55
2019-03-28T23:44:16.109Z,5.87
2019-03-28T23:46:44.216Z,5.73
2019-03-28T23:49:13.207Z,7.13
2019-03-28T23:52:01.993Z,7.03
2019-03-28T23:54:30.330Z,7.83
2019-03-28T23:56:58.447Z,7.75
2019-03-28T23:59:26.562Z,8.77
